Time;durP1;ratioP1;P1;durP2;ratioP2;P2;SDS_P1;SDS_P2;PMS_P1;PMS_P2;Temp;Humidity;BMP_temperature;BMP_pressure;BME280_temperature;BME280_humidity;BME280_pressure;Samples;Min_cycle;Max_cycle;Signal;HPM_P1;HPM_P2
2021/10/11 00:00:43;;;;;;;;;;;;;;;10.33;70.20;100157.34;6891029;20;19232;-42
2021/10/11 00:03:11;;;;;;;;;;;;;;;10.37;70.39;100166.09;6891992;20;8214;-42
2021/10/11 00:05:38;;;;;;;;;;;;;;;10.28;69.91;100168.31;6890286;20;18209;-42
2021/10/11 00:08:06;;;;;;;;;;;;;;;10.31;70.57;100168.16;6891562;20;8180;-42
2021/10/11 00:10:34;;;;;;;;;;;;;;;10.33;70.07;100160.03;6892082;20;7510;-43
2021/10/11 00:13:02;;;;;;;;;;;;;;;10.40;69.32;100149.81;6892569;20;7529;-44
2021/10/11 00:15:30;;;;;;;;;;;;;;;10.25;70.00;100157.72;6890586;20;7609;-42
2021/10/11 00:17:57;;;;;;;;;;;;;;;10.29;69.95;100164.72;6889520;20;7530;-43
2021/10/11 00:20:25;;;;;;;;;;;;;;;10.21;70.69;100166.88;6889139;20;18928;-42
2021/10/11 00:22:53;;;;;;;;;;;;;;;10.28;70.24;100168.31;6890417;20;15903;-42
2021/10/11 00:25:20;;;;;;;;;;;;;;;10.19;70.60;100166.09;6892472;20;7612;-42
2021/10/11 00:27:48;;;;;;;;;;;;;;;10.33;69.92;100160.91;6895766;20;17584;-42
2021/10/11 00:30:15;;;;;;;;;;;;;;;10.28;70.29;100162.94;6896935;20;7514;-42
2021/10/11 00:32:43;;;;;;;;;;;;;;;10.49;69.33;100162.78;6894379;20;7735;-45
2021/10/11 00:35:10;;;;;;;;;;;;;;;10.45;69.19;100161.19;6897105;20;7696;-43
2021/10/11 00:37:38;;;;;;;;;;;;;;;10.33;70.86;100144.78;6894461;20;18788;-43
2021/10/11 00:40:07;;;;;;;;;;;;;;;10.21;70.69;100144.53;6895030;20;20481;-42
2021/10/11 00:42:35;;;;;;;;;;;;;;;10.28;71.02;100141.47;6896038;20;7647;-42
2021/10/11 00:45:05;;;;;;;;;;;;;;;10.19;70.61;100141.94;6897306;20;7623;-43
2021/10/11 00:47:33;;;;;;;;;;;;;;;10.29;70.90;100137.88;6895532;20;7526;-43
2021/10/11 00:50:00;;;;;;;;;;;;;;;10.29;70.27;100140.56;6897189;20;7538;-43
2021/10/11 00:52:28;;;;;;;;;;;;;;;10.18;71.46;100133.97;6896713;20;7522;-44
2021/10/11 00:54:56;;;;;;;;;;;;;;;9.79;74.10;100133.25;6893559;20;8185;-43
2021/10/11 00:57:23;;;;;;;;;;;;;;;10.20;71.38;100135.63;6894371;20;7518;-45
2021/10/11 00:59:51;;;;;;;;;;;;;;;10.15;71.75;100129.63;6894828;20;7623;-43
2021/10/11 01:02:19;;;;;;;;;;;;;;;10.19;71.12;100131.22;6894961;20;7676;-45
2021/10/11 01:04:46;;;;;;;;;;;;;;;10.17;71.49;100133.09;6896527;20;8048;-42
2021/10/11 01:07:14;;;;;;;;;;;;;;;10.13;71.51;100131.53;6894952;20;19142;-42
2021/10/11 01:09:41;;;;;;;;;;;;;;;10.16;71.06;100135.84;6896582;20;7530;-42
2021/10/11 01:12:09;;;;;;;;;;;;;;;10.18;70.56;100124.09;6896089;20;15042;-43
2021/10/11 01:14:36;;;;;;;;;;;;;;;10.07;71.83;100119.31;6893415;20;7518;-42
2021/10/11 01:17:04;;;;;;;;;;;;;;;10.20;70.70;100118.66;6893056;20;17651;-44
2021/10/11 01:19:32;;;;;;;;;;;;;;;10.10;71.33;100120.94;6895350;20;7518;-43
2021/10/11 01:21:59;;;;;;;;;;;;;;;10.26;70.85;100121.00;6894718;20;18254;-43
2021/10/11 01:24:27;;;;;;;;;;;;;;;10.16;71.20;100115.25;6896017;20;7529;-42
2021/10/11 01:26:54;;;;;;;;;;;;;;;10.14;71.49;100117.19;6894489;20;18253;-43
2021/10/11 01:29:22;;;;;;;;;;;;;;;10.09;72.17;100108.50;6893117;20;19325;-43
2021/10/11 01:31:50;;;;;;;;;;;;;;;10.03;72.74;100108.81;6895671;20;7525;-43
2021/10/11 01:34:17;;;;;;;;;;;;;;;10.06;72.04;100103.31;6894086;20;7522;-42
2021/10/11 01:36:45;;;;;;;;;;;;;;;9.92;72.67;100101.31;6891278;20;7628;-42
2021/10/11 01:39:13;;;;;;;;;;;;;;;9.85;73.42;100106.16;6891844;20;19294;-42
2021/10/11 01:41:40;;;;;;;;;;;;;;;9.98;72.49;100100.13;6894225;20;7585;-43
2021/10/11 01:44:08;;;;;;;;;;;;;;;9.74;74.71;100107.63;6895179;20;7522;-42
2021/10/11 01:46:36;;;;;;;;;;;;;;;10.04;72.57;100095.31;6891686;20;7541;-42
2021/10/11 01:49:05;;;;;;;;;;;;;;;9.95;73.44;100094.94;6892768;20;7540;-45
2021/10/11 01:51:32;;;;;;;;;;;;;;;9.94;73.39;100090.53;6890921;20;19235;-43
2021/10/11 01:54:00;;;;;;;;;;;;;;;10.04;73.01;100086.41;6895182;20;7604;-43
2021/10/11 01:56:28;;;;;;;;;;;;;;;10.13;72.76;100088.59;6893373;20;7605;-42
2021/10/11 01:58:56;;;;;;;;;;;;;;;9.98;73.02;100086.72;6891054;20;7519;-42
2021/10/11 02:01:24;;;;;;;;;;;;;;;9.84;73.84;100082.09;6894118;20;7544;-42
2021/10/11 02:03:52;;;;;;;;;;;;;;;9.86;74.09;100081.06;6894172;20;18865;-42
2021/10/11 02:06:20;;;;;;;;;;;;;;;9.83;74.66;100080.34;6893936;20;20080;-43
2021/10/11 02:08:48;;;;;;;;;;;;;;;10.03;73.95;100073.94;6893903;20;18803;-42
2021/10/11 02:11:15;;;;;;;;;;;;;;;10.05;73.57;100077.41;6894173;20;19375;-42
2021/10/11 02:13:43;;;;;;;;;;;;;;;10.06;74.51;100076.47;6893544;20;19211;-43
2021/10/11 02:16:11;;;;;;;;;;;;;;;10.00;74.48;100071.41;6892902;20;19148;-42
2021/10/11 02:18:38;;;;;;;;;;;;;;;9.55;77.40;100070.19;6892601;20;7637;-42
2021/10/11 02:21:08;;;;;;;;;;;;;;;9.76;76.95;100074.44;6892430;20;7632;-43
2021/10/11 02:23:35;;;;;;;;;;;;;;;9.85;77.13;100065.91;6893477;20;7522;-42
2021/10/11 02:26:03;;;;;;;;;;;;;;;9.83;77.03;100067.81;6893389;20;7518;-42
2021/10/11 02:28:30;;;;;;;;;;;;;;;9.76;77.60;100062.84;6892558;20;7534;-42
2021/10/11 02:30:58;;;;;;;;;;;;;;;9.55;78.77;100064.81;6892829;20;7518;-42
2021/10/11 02:33:27;;;;;;;;;;;;;;;9.65;78.63;100066.94;6891712;20;7753;-44
2021/10/11 02:35:55;;;;;;;;;;;;;;;9.83;77.72;100061.59;6891894;20;18740;-42
2021/10/11 02:38:23;;;;;;;;;;;;;;;9.91;77.13;100055.81;6890668;20;19285;-43
2021/10/11 02:40:51;;;;;;;;;;;;;;;9.81;76.56;100056.28;6894069;20;7566;-42
2021/10/11 02:43:18;;;;;;;;;;;;;;;9.85;76.75;100057.88;6893574;20;7537;-43
2021/10/11 02:45:46;;;;;;;;;;;;;;;9.63;77.85;100051.88;6893222;20;7517;-45
2021/10/11 02:48:13;;;;;;;;;;;;;;;9.72;77.98;100051.44;6889677;20;18997;-43
2021/10/11 02:50:41;;;;;;;;;;;;;;;9.66;77.65;100041.00;6894510;20;7542;-42
2021/10/11 02:53:09;;;;;;;;;;;;;;;9.68;77.49;100044.47;6894036;20;8125;-42
2021/10/11 02:55:36;;;;;;;;;;;;;;;9.71;77.33;100044.31;6892027;20;7544;-44
2021/10/11 02:58:04;;;;;;;;;;;;;;;9.61;78.21;100051.09;6890900;20;19264;-42
2021/10/11 03:00:32;;;;;;;;;;;;;;;9.37;80.68;100055.91;6892125;20;7522;-44
2021/10/11 03:03:00;;;;;;;;;;;;;;;9.61;78.18;100043.06;6892330;20;18856;-41
2021/10/11 03:05:27;;;;;;;;;;;;;;;9.67;77.95;100045.44;6893476;20;7589;-42
2021/10/11 03:07:55;;;;;;;;;;;;;;;9.81;76.86;100037.53;6892723;20;7574;-42
2021/10/11 03:10:23;;;;;;;;;;;;;;;9.89;76.13;100042.47;6892990;20;16071;-42
2021/10/11 03:12:50;;;;;;;;;;;;;;;9.35;80.35;100045.28;6890957;20;7510;-42
2021/10/11 03:15:18;;;;;;;;;;;;;;;9.38;79.65;100037.06;6893160;20;8075;-42
2021/10/11 03:17:45;;;;;;;;;;;;;;;9.68;76.68;100033.75;6891313;20;18671;-42
2021/10/11 03:20:13;;;;;;;;;;;;;;;9.77;76.52;100035.97;6893124;20;7522;-42
2021/10/11 03:22:40;;;;;;;;;;;;;;;9.67;76.25;100032.88;6891968;20;7502;-42
2021/10/11 03:25:08;;;;;;;;;;;;;;;9.61;77.01;100026.97;6892937;20;19001;-42
2021/10/11 03:27:36;;;;;;;;;;;;;;;9.91;75.65;100029.00;6891394;20;7751;-42
2021/10/11 03:30:04;;;;;;;;;;;;;;;9.88;75.94;100028.22;6890663;20;7582;-41
2021/10/11 03:32:32;;;;;;;;;;;;;;;9.82;76.13;100023.19;6890419;20;7628;-42
2021/10/11 03:34:59;;;;;;;;;;;;;;;9.81;76.61;100028.63;6891833;20;19731;-43
2021/10/11 03:37:27;;;;;;;;;;;;;;;9.74;77.43;100022.72;6889148;20;19586;-42
2021/10/11 03:39:54;;;;;;;;;;;;;;;9.77;77.58;100027.91;6891212;20;19318;-42
2021/10/11 03:42:22;;;;;;;;;;;;;;;9.67;78.59;100022.16;6891391;20;19370;-42
2021/10/11 03:44:49;;;;;;;;;;;;;;;9.69;79.07;100022.09;6890365;20;19209;-43
2021/10/11 03:47:17;;;;;;;;;;;;;;;9.67;79.13;100008.75;6891830;20;7522;-42
2021/10/11 03:49:45;;;;;;;;;;;;;;;9.58;80.50;100008.38;6890630;20;7619;-43
2021/10/11 03:52:13;;;;;;;;;;;;;;;9.53;81.01;100002.38;6890714;20;11866;-43
2021/10/11 03:54:40;;;;;;;;;;;;;;;9.53;81.76;100005.06;6891837;20;18154;-41
2021/10/11 03:57:08;;;;;;;;;;;;;;;9.39;82.53;100005.78;6890673;20;7522;-41
2021/10/11 03:59:35;;;;;;;;;;;;;;;9.40;83.11;100003.03;6889710;20;7566;-43
2021/10/11 04:02:03;;;;;;;;;;;;;;;9.32;83.29;100002.56;6894924;20;7524;-42
2021/10/11 04:04:33;;;;;;;;;;;;;;;9.45;83.19;100001.00;6895409;20;13783;-41
2021/10/11 04:07:06;;;;;;;;;;;;;;;9.15;84.11;100002.53;6896597;20;17788;-44
2021/10/11 04:09:34;;;;;;;;;;;;;;;9.40;83.45;99997.69;6898401;20;7608;-43
2021/10/11 04:12:37;;;;;;;;;;;;;;;9.39;83.37;99990.56;6897270;20;20248;-43
2021/10/11 04:14:55;;;;;;;;;;;;;;;9.21;83.64;99996.88;6895569;20;7556;-42
2021/10/11 04:17:22;;;;;;;;;;;;;;;9.25;83.67;99995.78;6896267;20;7549;-42
2021/10/11 04:19:50;;;;;;;;;;;;;;;9.23;84.04;100000.34;6893318;20;17743;-43
2021/10/11 04:22:17;;;;;;;;;;;;;;;9.13;85.66;100001.75;6896909;20;7518;-43
2021/10/11 04:24:45;;;;;;;;;;;;;;;8.96;86.87;99998.13;6897567;20;7593;-44
2021/10/11 04:27:13;;;;;;;;;;;;;;;8.87;85.94;99997.69;6894374;20;14789;-43
2021/10/11 04:29:40;;;;;;;;;;;;;;;9.08;84.34;99996.63;6897778;20;7530;-47
2021/10/11 04:32:08;;;;;;;;;;;;;;;9.28;83.11;99984.91;6896721;20;7654;-43
2021/10/11 04:34:35;;;;;;;;;;;;;;;9.40;81.67;99989.63;6894472;20;18484;-45
2021/10/11 04:37:03;;;;;;;;;;;;;;;9.17;84.14;99985.44;6896883;20;15940;-43
2021/10/11 04:39:31;;;;;;;;;;;;;;;9.12;83.17;99984.81;6895268;20;12193;-43
2021/10/11 04:41:58;;;;;;;;;;;;;;;9.17;85.11;99992.63;6897750;20;7548;-43
2021/10/11 04:44:27;;;;;;;;;;;;;;;8.85;87.48;99988.91;6897124;20;7722;-44
2021/10/11 04:46:55;;;;;;;;;;;;;;;9.08;87.66;99985.03;6894049;20;7540;-43
2021/10/11 04:49:22;;;;;;;;;;;;;;;9.34;86.99;99987.25;6893467;20;8434;-42
2021/10/11 04:51:50;;;;;;;;;;;;;;;9.06;87.24;99984.25;6892032;20;18593;-41
2021/10/11 04:54:17;;;;;;;;;;;;;;;8.97;89.46;99988.25;6893940;20;19144;-41
2021/10/11 04:56:45;;;;;;;;;;;;;;;9.15;89.14;99987.34;6893409;20;14693;-41
2021/10/11 04:59:12;;;;;;;;;;;;;;;9.33;87.92;99990.88;6892997;20;17080;-41
2021/10/11 05:01:40;;;;;;;;;;;;;;;8.70;90.88;99998.53;6894424;20;7522;-41
2021/10/11 05:04:08;;;;;;;;;;;;;;;9.04;91.55;99991.50;6895311;20;18999;-43
2021/10/11 05:06:35;;;;;;;;;;;;;;;9.30;88.18;99988.38;6896122;20;7515;-43
2021/10/11 05:09:03;;;;;;;;;;;;;;;8.88;89.08;100000.31;6894055;20;17346;-40
2021/10/11 05:11:30;;;;;;;;;;;;;;;8.85;90.23;99988.91;6895143;20;19107;-42
2021/10/11 05:13:58;;;;;;;;;;;;;;;9.19;87.01;99996.09;6895060;20;15247;-41
2021/10/11 05:16:27;;;;;;;;;;;;;;;9.01;87.85;99993.41;6894391;20;17841;-43
2021/10/11 05:18:54;;;;;;;;;;;;;;;9.21;87.23;99986.16;6892705;20;7522;-43
2021/10/11 05:21:22;;;;;;;;;;;;;;;9.27;86.59;99985.84;6895558;20;19217;-40
2021/10/11 05:23:49;;;;;;;;;;;;;;;9.20;88.44;99987.09;6894593;20;17539;-42
2021/10/11 05:26:17;;;;;;;;;;;;;;;9.33;86.99;99990.03;6896069;20;8033;-41
2021/10/11 05:28:44;;;;;;;;;;;;;;;9.01;89.39;99988.03;6892421;20;18252;-42
2021/10/11 05:31:12;;;;;;;;;;;;;;;9.40;87.38;99992.31;6893230;20;7636;-41
2021/10/11 05:33:40;;;;;;;;;;;;;;;9.35;87.25;99991.69;6889800;20;19106;-41
2021/10/11 05:36:07;;;;;;;;;;;;;;;9.49;85.41;99990.97;6895867;20;7586;-41
2021/10/11 05:38:35;;;;;;;;;;;;;;;9.58;85.43;99987.78;6892097;20;7557;-42
2021/10/11 05:41:02;;;;;;;;;;;;;;;9.32;85.66;99989.16;6892385;20;18209;-42
2021/10/11 05:43:30;;;;;;;;;;;;;;;9.47;85.52;99991.97;6894171;20;8007;-42
2021/10/11 05:45:58;;;;;;;;;;;;;;;9.50;85.46;99994.50;6893871;20;15453;-41
2021/10/11 05:48:25;;;;;;;;;;;;;;;9.57;85.20;99993.25;6893083;20;7615;-41
2021/10/11 05:50:53;;;;;;;;;;;;;;;9.61;84.80;99989.44;6895571;20;13538;-41
2021/10/11 05:53:20;;;;;;;;;;;;;;;9.55;85.64;99990.63;6893933;20;7514;-42
2021/10/11 05:55:48;;;;;;;;;;;;;;;9.40;86.05;99995.00;6892517;20;7719;-43
2021/10/11 05:58:15;;;;;;;;;;;;;;;9.63;85.41;99995.59;6893285;20;7521;-41
2021/10/11 06:00:43;;;;;;;;;;;;;;;9.74;83.92;100001.28;6893324;20;7677;-41
2021/10/11 06:03:10;;;;;;;;;;;;;;;9.56;84.80;99992.38;6894333;20;17510;-42
2021/10/11 06:05:38;;;;;;;;;;;;;;;9.71;84.44;100001.41;6890986;20;7664;-41
2021/10/11 06:08:05;;;;;;;;;;;;;;;9.92;83.45;100003.91;6893721;20;18942;-42
2021/10/11 06:10:33;;;;;;;;;;;;;;;9.89;83.21;99995.06;6893137;20;19686;-41
2021/10/11 06:13:01;;;;;;;;;;;;;;;9.82;83.88;99999.03;6892673;20;7526;-41
2021/10/11 06:15:29;;;;;;;;;;;;;;;9.89;83.80;100000.44;6893251;20;17996;-42
2021/10/11 06:17:56;;;;;;;;;;;;;;;9.84;83.99;100001.63;6891267;20;20309;-41
2021/10/11 06:20:24;;;;;;;;;;;;;;;9.98;83.51;100006.25;6890851;20;7647;-40
2021/10/11 06:22:51;;;;;;;;;;;;;;;9.90;84.18;100004.00;6892757;20;18919;-42
2021/10/11 06:25:19;;;;;;;;;;;;;;;9.86;83.85;100003.28;6893096;20;14077;-41
2021/10/11 06:27:47;;;;;;;;;;;;;;;9.83;84.22;100014.19;6893605;20;8154;-42
2021/10/11 06:30:15;;;;;;;;;;;;;;;10.09;83.29;100012.78;6892885;20;7548;-41
2021/10/11 06:32:43;;;;;;;;;;;;;;;10.08;83.80;100010.16;6894857;20;7553;-41
2021/10/11 06:35:10;;;;;;;;;;;;;;;10.03;84.20;100004.19;6893898;20;7593;-42
2021/10/11 06:37:38;;;;;;;;;;;;;;;10.13;82.71;100008.09;6889257;20;12693;-42
2021/10/11 06:40:07;;;;;;;;;;;;;;;10.35;81.55;100012.31;6892062;20;7637;-42
2021/10/11 06:42:55;;;;;;;;;;;;;;;10.36;81.07;100009.56;6893881;20;8166;-42
2021/10/11 06:45:22;;;;;;;;;;;;;;;10.43;80.93;100016.31;6893095;20;19409;-46
2021/10/11 06:47:50;;;;;;;;;;;;;;;10.35;82.12;100023.94;6891576;20;7549;-43
2021/10/11 06:50:17;;;;;;;;;;;;;;;10.42;82.13;100028.00;6893709;20;7518;-43
2021/10/11 06:52:45;;;;;;;;;;;;;;;10.48;81.50;100026.81;6892841;20;17544;-43
2021/10/11 06:55:12;;;;;;;;;;;;;;;10.32;81.14;100024.09;6893991;20;7526;-44
2021/10/11 06:57:40;;;;;;;;;;;;;;;10.59;80.61;100037.81;6890519;20;20227;-41
2021/10/11 07:00:08;;;;;;;;;;;;;;;10.66;81.31;100030.25;6891752;20;7593;-42
2021/10/11 07:02:37;;;;;;;;;;;;;;;10.66;80.92;100028.44;6892607;20;17702;-43
2021/10/11 07:05:10;;;;;;;;;;;;;;;10.66;81.52;100023.06;6894373;20;7613;-42
2021/10/11 07:07:39;;;;;;;;;;;;;;;10.73;81.78;100029.84;6890322;20;7632;-43
2021/10/11 07:10:09;;;;;;;;;;;;;;;10.72;81.37;100033.47;6893836;20;7548;-42
2021/10/11 07:12:37;;;;;;;;;;;;;;;10.74;80.74;100038.75;6892744;20;17586;-43
2021/10/11 07:15:21;;;;;;;;;;;;;;;10.72;80.19;100028.13;6891271;20;18950;-43
2021/10/11 07:17:48;;;;;;;;;;;;;;;10.92;79.46;100032.31;6893339;20;7984;-43
2021/10/11 07:20:16;;;;;;;;;;;;;;;11.01;78.64;100038.16;6889545;20;18097;-42
2021/10/11 07:22:43;;;;;;;;;;;;;;;10.92;79.14;100034.16;6892764;20;7544;-43
2021/10/11 07:25:11;;;;;;;;;;;;;;;11.11;77.38;100036.63;6890793;20;8146;-42
2021/10/11 07:27:38;;;;;;;;;;;;;;;11.15;78.32;100028.31;6892236;20;7534;-42
2021/10/11 07:30:06;;;;;;;;;;;;;;;11.23;78.21;100025.19;6890684;20;17326;-43
2021/10/11 07:32:34;;;;;;;;;;;;;;;11.27;77.69;100028.53;6893732;20;7601;-43
2021/10/11 07:35:02;;;;;;;;;;;;;;;11.45;77.55;100027.44;6896755;20;7522;-42
2021/10/11 07:37:46;;;;;;;;;;;;;;;11.40;78.67;100030.44;6896889;20;19623;-44
2021/10/11 07:40:14;;;;;;;;;;;;;;;11.72;77.48;100024.94;6895012;20;7526;-43
2021/10/11 07:42:42;;;;;;;;;;;;;;;11.65;76.44;100024.44;6898271;20;7522;-43
2021/10/11 07:45:09;;;;;;;;;;;;;;;11.73;76.30;100023.97;6896128;20;18306;-41
2021/10/11 07:47:37;;;;;;;;;;;;;;;11.94;75.46;100024.50;6896292;20;18176;-42
2021/10/11 07:50:05;;;;;;;;;;;;;;;12.15;75.11;100018.75;6895332;20;17079;-42
2021/10/11 07:52:33;;;;;;;;;;;;;;;12.24;74.77;100012.78;6898326;20;7529;-42
2021/10/11 07:55:01;;;;;;;;;;;;;;;12.36;74.17;100013.84;6896931;20;15387;-43
2021/10/11 07:57:32;;;;;;;;;;;;;;;12.50;74.01;100014.66;6897275;20;20323;-42
2021/10/11 08:00:06;;;;;;;;;;;;;;;12.52;72.72;100015.44;6894094;20;18893;-42
2021/10/11 08:02:34;;;;;;;;;;;;;;;12.54;71.68;100011.81;6897853;20;7601;-42
2021/10/11 08:05:03;;;;;;;;;;;;;;;12.71;71.95;100015.09;6898564;20;7644;-40
2021/10/11 08:07:31;;;;;;;;;;;;;;;12.67;71.80;100018.13;6897082;20;7621;-42
2021/10/11 08:09:58;;;;;;;;;;;;;;;12.67;71.65;100018.13;6895827;20;7525;-42
2021/10/11 08:12:26;;;;;;;;;;;;;;;12.60;71.18;100011.41;6896304;20;17282;-42
2021/10/11 08:14:53;;;;;;;;;;;;;;;12.89;68.31;100013.03;6898605;20;7542;-42
2021/10/11 08:17:21;;;;;;;;;;;;;;;13.00;66.07;100014.16;6895655;20;18036;-42
2021/10/11 08:19:48;;;;;;;;;;;;;;;13.04;66.10;100011.19;6897137;20;16355;-43
2021/10/11 08:22:19;;;;;;;;;;;;;;;13.12;67.33;100016.91;6896441;20;16484;-42
2021/10/11 08:24:48;;;;;;;;;;;;;;;13.14;64.30;100011.44;6897920;20;7530;-43
2021/10/11 08:27:17;;;;;;;;;;;;;;;13.13;63.85;100012.38;6895626;20;18054;-44
2021/10/11 08:29:51;;;;;;;;;;;;;;;13.25;63.27;100014.25;6894851;20;20015;-44
2021/10/11 08:32:26;;;;;;;;;;;;;;;13.33;62.41;100022.72;6896981;20;7598;-42
2021/10/11 08:34:54;;;;;;;;;;;;;;;13.37;61.35;100016.16;6895288;20;17950;-42
2021/10/11 08:37:22;;;;;;;;;;;;;;;13.25;61.11;100016.97;6896184;20;11781;-43
2021/10/11 08:39:51;;;;;;;;;;;;;;;13.55;60.02;100010.47;6894324;20;19331;-43
2021/10/11 08:42:21;;;;;;;;;;;;;;;13.75;60.27;100018.06;6897964;20;8135;-45
2021/10/11 08:44:49;;;;;;;;;;;;;;;13.68;59.29;100015.91;6895673;20;19114;-42
2021/10/11 08:47:17;;;;;;;;;;;;;;;13.74;59.01;100016.31;6894606;20;20241;-43
2021/10/11 08:49:49;;;;;;;;;;;;;;;13.67;58.01;100014.19;6897029;20;7536;-45
2021/10/11 08:52:23;;;;;;;;;;;;;;;13.63;59.01;100018.03;6894480;20;7506;-42
2021/10/11 08:54:52;;;;;;;;;;;;;;;13.48;59.50;100014.56;6896463;20;7530;-42
2021/10/11 08:57:29;;;;;;;;;;;;;;;13.80;58.06;100025.84;6894636;20;8467;-46
2021/10/11 09:00:18;;;;;;;;;;;;;;;13.60;58.77;100013.72;6896180;20;17191;-44
2021/10/11 09:02:54;;;;;;;;;;;;;;;13.99;60.44;100015.47;6896564;20;7510;-44
2021/10/11 09:05:32;;;;;;;;;;;;;;;14.02;57.19;100009.00;6894932;20;7520;-43
2021/10/11 09:08:14;;;;;;;;;;;;;;;14.01;56.02;100007.28;6895487;20;20144;-43
2021/10/11 09:10:56;;;;;;;;;;;;;;;14.08;55.61;100007.69;6899836;20;7532;-44
2021/10/11 09:13:48;;;;;;;;;;;;;;;14.03;53.99;99999.91;6898627;20;17039;-42
2021/10/11 09:16:28;;;;;;;;;;;;;;;13.54;55.39;99997.97;6895757;20;7513;-42
2021/10/11 09:19:26;;;;;;;;;;;;;;;13.69;55.97;99996.91;6872465;20;21169;-42
2021/10/11 09:22:34;;;;;;;;;20.00;18.88;;;;;14.06;55.12;99991.63;6208322;20;3569017;-44
2021/10/11 09:25:04;;;;;;;;;22.00;16.00;;;;;13.89;53.85;99986.53;6342235;20;2491909;-44
2021/10/11 09:27:52;;;;;;;;;24.00;18.67;;;;;13.76;55.91;99987.41;6310095;20;2839849;-44
2021/10/11 09:30:37;;;;;;;;;33.00;22.67;;;;;13.86;55.57;99989.47;6344002;20;3621137;-44
2021/10/11 09:33:15;;;;;;;;;17.00;17.00;;;;;13.79;55.45;99995.28;6308391;20;2829552;-44
2021/10/11 09:35:47;;;;;;;;;24.33;19.00;;;;;13.86;55.61;99986.75;6311922;20;2852343;-44
2021/10/11 09:38:31;;;;;;;;;33.67;30.00;;;;;13.90;55.97;99982.84;6345953;20;3605427;-44
2021/10/11 09:41:00;;;;;;;;;17.50;16.50;;;;;13.88;54.43;99979.44;6310604;20;2492050;-43
2021/10/11 09:43:31;;;;;;;;;20.33;16.33;;;;;13.92;54.48;99975.53;6313051;20;3556598;-46
2021/10/11 09:46:14;;;;;;;;;19.50;19.38;;;;;13.92;55.26;99975.53;6272081;20;3579385;-45
2021/10/11 09:48:56;;;;;;;;;23.50;20.50;;;;;13.86;54.63;99967.88;6306291;20;2848144;-45
2021/10/11 09:51:25;;;;;;;;;22.00;16.50;;;;;13.82;55.34;99965.41;6313432;20;2833606;-45
2021/10/11 09:53:55;;;;;;;;;20.00;15.00;;;;;13.74;55.19;99965.03;6312204;20;2819089;-43
2021/10/11 09:56:26;;;;;;;;;62.00;47.00;;;;;13.53;56.83;99963.84;6310808;20;2764806;-44
2021/10/11 09:58:55;;;;;;;;;24.50;18.50;;;;;13.91;55.99;99971.09;6307112;20;2835695;-44
2021/10/11 10:01:24;;;;;;;;;17.33;17.00;;;;;13.97;54.84;99974.22;6312607;20;3543972;-44
2021/10/11 10:03:55;;;;;;;;;24.00;21.00;;;;;13.94;54.97;99968.19;6337882;20;2488151;-44
2021/10/11 10:06:30;;;;;;;;;27.50;23.50;;;;;13.87;56.31;99966.88;6309970;20;2854517;-44
2021/10/11 10:09:03;;;;;;;;;29.00;27.33;;;;;13.90;55.44;99967.56;6306358;20;2859778;-43
2021/10/11 10:11:33;;;;;;;;;22.67;21.33;;;;;14.04;56.26;99959.31;6343947;20;3563844;-43
2021/10/11 10:14:04;;;;;;;;;25.67;22.67;;;;;14.16;56.15;99957.56;6307654;20;2837968;-44
2021/10/11 10:16:33;;;;;;;;;25.33;23.00;;;;;14.02;57.73;99961.25;6345344;20;3583594;-45
2021/10/11 10:19:10;;;;;;;;;14.00;13.00;;;;;13.68;58.60;99957.38;6307070;20;3508664;-44
2021/10/11 10:21:40;;;;;;;;;16.50;15.00;;;;;13.83;58.43;99953.63;6342456;20;2818009;-44
2021/10/11 10:24:08;;;;;;;;;14.50;13.50;;;;;14.08;56.59;99959.09;6312797;20;2799206;-44
2021/10/11 10:26:37;;;;;;;;;18.33;14.33;;;;;14.19;54.45;99954.66;6311141;20;3547637;-44
2021/10/11 10:29:47;;;;;;;;;16.50;14.00;;;;;14.23;55.19;99955.28;6310273;20;2804513;-43
2021/10/11 10:32:19;;;;;;;;;15.50;15.50;;;;;13.70;55.92;99944.66;6301980;20;2497133;-43
2021/10/11 10:35:03;;;;;;;;;16.00;13.67;;;;;14.28;55.15;99950.41;6287727;20;3525379;-44
2021/10/11 10:37:38;;;;;;;;;27.67;25.00;;;;;14.52;54.13;99949.59;6322316;20;3581483;-42
2021/10/11 10:40:13;;;;;;;;;13.50;11.00;;;;;14.02;56.33;99947.75;6293866;20;2808731;-45
2021/10/11 10:42:44;;;;;;;;;19.00;16.50;;;;;13.95;55.73;99938.38;6285841;20;2811929;-45
2021/10/11 10:45:27;;;;;;;;;12.33;12.33;;;;;14.30;55.60;99937.69;6287243;20;3529416;-46
2021/10/11 10:47:55;;;;;;;;;19.00;13.67;;;;;14.46;54.64;99934.72;6318583;20;3531220;-46
2021/10/11 10:50:28;;;;;;;;;20.67;18.00;;;;;14.00;57.52;99929.94;6285202;20;3567947;-46
2021/10/11 10:53:02;;;;;;;;;16.00;14.00;;;;;14.48;55.29;99921.94;6290758;20;2816999;-46
2021/10/11 10:55:30;;;;;;;;;17.00;16.00;;;;;14.31;57.41;99919.63;6293473;20;2811734;-46
2021/10/11 10:58:08;;;;;;;;;10.40;7.60;;;;;14.59;57.38;99919.34;6314913;20;2760742;-45
2021/10/11 11:00:38;;;;;;;;;15.00;13.00;;;;;14.53;57.07;99918.94;6285669;20;2493999;-44
2021/10/11 11:03:13;;;;;;;;;18.67;14.00;;;;;14.37;56.09;99911.91;6289190;20;3539844;-46
2021/10/11 11:05:44;;;;;;;;;24.50;20.50;;;;;13.82;57.43;99908.72;6285141;20;2848245;-45
2021/10/11 11:08:33;;;;;;;;;17.00;15.00;;;;;14.31;57.35;99903.41;6287584;20;3536752;-44
2021/10/11 11:11:03;;;;;;;;;18.00;14.00;;;;;14.32;56.44;99903.28;6288706;20;2805657;-44
2021/10/11 11:13:31;;;;;;;;;18.00;13.00;;;;;14.18;59.33;99901.59;6291779;20;2496111;-45
2021/10/11 11:16:00;;;;;;;;;31.33;28.00;;;;;13.87;60.71;99894.00;6294216;20;3594035;-44
2021/10/11 11:18:29;;;;;;;;;29.67;28.67;;;;;13.89;61.21;99886.66;6286565;20;2855556;-44
2021/10/11 11:20:58;;;;;;;;;19.00;14.00;;;;;14.01;61.65;99889.34;6317902;20;3528398;-47
2021/10/11 11:23:34;;;;;;;;;34.00;31.00;;;;;13.74;61.47;99884.09;6284933;20;2855471;-48
2021/10/11 11:26:05;;;;;;;;;11.00;11.00;;;;;13.74;60.54;99886.78;6293533;20;2739831;-45
2021/10/11 11:28:36;;;;;;;;;15.50;15.50;;;;;13.60;60.87;99879.69;6290953;20;2804456;-44
2021/10/11 11:31:10;;;;;;;;;21.00;17.00;;;;;14.15;59.22;99893.75;6287943;20;2494093;-42
2021/10/11 11:33:52;;;;;;;;;21.50;17.50;;;;;14.33;58.67;99893.38;6286810;20;2832563;-43
2021/10/11 11:36:21;;;;;;;;;18.33;13.67;;;;;14.18;58.19;99890.81;6286589;20;3547174;-42
2021/10/11 11:38:49;;;;;;;;;15.00;15.00;;;;;13.65;60.09;99882.06;6320330;20;2801446;-42
2021/10/11 11:41:19;;;;;;;;;17.83;13.00;;;;;13.68;60.23;99889.94;6309966;20;2811683;-42
2021/10/11 11:43:47;;;;;;;;;12.00;11.00;;;;;13.59;59.68;99887.91;6316130;20;2491909;-43
2021/10/11 11:46:15;;;;;;;;;14.50;13.00;;;;;14.17;59.52;99894.50;6292670;20;2779423;-43
2021/10/11 11:48:44;;;;;;;;;15.33;13.67;;;;;13.91;60.38;99887.44;6284652;20;3531460;-43
2021/10/11 11:51:21;;;;;;;;;18.67;15.00;;;;;14.03;58.66;99881.13;6316610;20;3531498;-44
2021/10/11 11:53:49;;;;;;;;;18.33;13.67;;;;;14.47;59.14;99879.69;6286636;20;3549259;-42
2021/10/11 11:56:18;;;;;;;;;15.33;12.33;;;;;14.19;59.43;99875.47;6286581;20;3515866;-43
2021/10/11 11:58:51;;;;;;;;;16.00;12.00;;;;;14.57;57.96;99875.34;6320813;20;2806490;-44
2021/10/11 12:01:30;;;;;;;;;13.33;11.33;;;;;14.74;57.93;99881.31;6286074;20;3521110;-44
2021/10/11 12:04:05;;;;;;;;;18.00;12.50;;;;;14.76;58.08;99873.97;6317512;20;2492025;-44
2021/10/11 12:06:35;;;;;;;;;13.33;10.67;;;;;14.28;59.50;99875.66;6284984;20;3515874;-44
2021/10/11 12:09:05;;;;;;;;;11.40;10.00;;;;;14.57;58.46;99875.34;6336852;20;2787757;-44
2021/10/11 12:11:33;;;;;;;;;17.50;12.00;;;;;14.30;59.16;99871.97;6289841;20;2793075;-43
2021/10/11 12:14:03;;;;;;;;;39.67;32.33;;;;;14.05;58.97;99869.22;6286634;20;3613767;-43
2021/10/11 12:16:33;;;;;;;;;14.00;12.00;;;;;14.22;59.13;99868.03;6321356;20;2796110;-44
2021/10/11 12:19:04;;;;;;;;;16.67;11.33;;;;;14.28;59.42;99867.56;6283575;20;3523306;-43
2021/10/11 12:21:42;;;;;;;;;14.67;13.00;;;;;14.40;59.55;99864.91;6314206;20;3517947;-44
2021/10/11 12:24:17;;;;;;;;;21.33;17.33;;;;;14.37;59.69;99865.13;6321032;20;3569024;-43
2021/10/11 12:26:55;;;;;;;;;16.67;13.00;;;;;14.82;57.05;99863.53;6284112;20;3533637;-44
2021/10/11 12:29:27;;;;;;;;;9.00;7.00;;;;;14.86;58.30;99864.19;6288020;20;2735661;-44
2021/10/11 12:32:15;;;;;;;;;16.00;12.00;;;;;14.63;59.66;99864.06;6285423;20;2491918;-43